Time;durP1;ratioP1;P1;durP2;ratioP2;P2;SDS_P1;SDS_P2;PMS_P1;PMS_P2;Temp;Humidity;BMP_temperature;BMP_pressure;BME280_temperature;BME280_humidity;BME280_pressure;Samples;Min_cycle;Max_cycle;Signal;HPM_P1;HPM_P2
2024/01/23 00:01:18;;;;;;;41.10;11.40;;;24.40;39.50;;;;;;5069040;28;20215;-79
2024/01/23 00:03:45;;;;;;;37.30;10.63;;;24.40;39.50;;;;;;5069532;28;20211;-78
2024/01/23 00:06:12;;;;;;;43.20;11.60;;;24.40;39.50;;;;;;5073253;28;20191;-78
2024/01/23 00:08:40;;;;;;;47.53;12.03;;;24.40;39.50;;;;;;5071089;28;20223;-78
2024/01/23 00:11:07;;;;;;;40.27;11.20;;;24.40;39.50;;;;;;5068093;28;20203;-79
2024/01/23 00:13:34;;;;;;;43.60;11.43;;;24.40;40.10;;;;;;5072751;28;20944;-79
2024/01/23 00:16:01;;;;;;;46.33;10.93;;;24.40;39.60;;;;;;5076687;28;20206;-79
2024/01/23 00:18:27;;;;;;;71.03;13.10;;;24.40;39.50;;;;;;5082130;28;20293;-79
2024/01/23 00:20:54;;;;;;;45.10;13.00;;;24.40;39.50;;;;;;5071119;28;20236;-82
2024/01/23 00:23:21;;;;;;;39.90;14.93;;;24.40;39.40;;;;;;5069538;28;20210;-82
2024/01/23 00:25:51;;;;;;;50.57;16.57;;;24.40;39.50;;;;;;5069622;28;20218;-81
2024/01/23 00:28:18;;;;;;;39.37;15.03;;;24.40;39.40;;;;;;5068194;28;20227;-81
2024/01/23 00:30:45;;;;;;;69.73;17.20;;;24.40;39.50;;;;;;5082521;28;20295;-82
2024/01/23 00:33:12;;;;;;;44.43;15.87;;;24.40;39.40;;;;;;5081242;28;20203;-81
2024/01/23 00:35:40;;;;;;;104.50;18.73;;;24.40;39.50;;;;;;5078781;28;20198;-82
2024/01/23 00:38:07;;;;;;;71.27;12.10;;;24.40;39.40;;;;;;5077026;28;20215;-78
2024/01/23 00:40:35;;;;;;;54.80;10.73;;;24.40;39.40;;;;;;5083165;28;20287;-80
2024/01/23 00:43:03;;;;;;;80.37;12.90;;;24.40;39.40;;;;;;5077918;28;20286;-78
2024/01/23 00:45:30;;;;;;;46.00;11.40;;;24.40;39.40;;;;;;5084531;28;20289;-78
2024/01/23 00:47:57;;;;;;;40.83;9.23;;;24.40;39.40;;;;;;5085351;28;20229;-79
2024/01/23 00:50:25;;;;;;;43.43;9.80;;;24.40;39.40;;;;;;5067192;28;20315;-79
2024/01/23 00:52:53;;;;;;;83.07;11.67;;;24.40;39.40;;;;;;5067429;28;20612;-79
2024/01/23 00:55:19;;;;;;;60.90;14.30;;;24.40;39.30;;;;;;5072190;28;20195;-78
2024/01/23 00:57:46;;;;;;;94.40;13.93;;;24.40;39.40;;;;;;5072183;28;20207;-78
2024/01/23 01:00:15;;;;;;;47.80;10.57;;;24.40;39.40;;;;;;5079267;28;20285;-77
2024/01/23 01:02:42;;;;;;;58.10;10.67;;;24.40;39.30;;;;;;5066782;28;20290;-77
2024/01/23 01:05:09;;;;;;;44.80;11.23;;;24.40;39.30;;;;;;5079769;28;20205;-77
2024/01/23 01:07:36;;;;;;;75.60;12.80;;;24.40;39.30;;;;;;5068661;28;20202;-77
2024/01/23 01:10:04;;;;;;;49.83;10.57;;;24.40;39.30;;;;;;5072156;28;20282;-78
2024/01/23 01:12:33;;;;;;;50.10;10.00;;;24.40;39.30;;;;;;5069144;28;21030;-77
2024/01/23 01:15:00;;;;;;;79.80;12.63;;;24.40;39.30;;;;;;5081656;28;20203;-77
2024/01/23 01:17:28;;;;;;;42.60;10.33;;;24.40;39.30;;;;;;5074486;28;20196;-78
2024/01/23 01:19:56;;;;;;;41.93;10.13;;;24.40;39.30;;;;;;5066907;28;20219;-77
2024/01/23 01:22:23;;;;;;;57.77;11.03;;;24.40;39.30;;;;;;5081815;28;20282;-77
2024/01/23 01:24:50;;;;;;;51.43;9.97;;;24.40;39.20;;;;;;5087067;28;20285;-77
2024/01/23 01:27:17;;;;;;;70.23;12.33;;;24.40;39.30;;;;;;5085087;28;20198;-77
2024/01/23 01:29:44;;;;;;;53.47;11.03;;;24.40;39.30;;;;;;5072670;28;20235;-77
2024/01/23 01:32:11;;;;;;;67.30;11.43;;;24.40;39.20;;;;;;5071129;28;20191;-78
2024/01/23 01:34:39;;;;;;;45.43;10.37;;;24.40;39.20;;;;;;5079053;28;20257;-78
2024/01/23 01:37:07;;;;;;;43.73;9.37;;;24.40;39.20;;;;;;5074906;28;20202;-78
2024/01/23 01:39:33;;;;;;;57.37;12.10;;;24.40;39.20;;;;;;5077178;28;20203;-78
2024/01/23 01:42:00;;;;;;;46.73;11.07;;;24.40;39.20;;;;;;5067551;28;20282;-81
2024/01/23 01:44:29;;;;;;;47.60;10.40;;;24.40;40.00;;;;;;5072880;28;20277;-81
2024/01/23 01:46:56;;;;;;;63.97;12.17;;;24.40;39.20;;;;;;5083994;28;20203;-79
2024/01/23 01:49:24;;;;;;;51.13;10.37;;;24.40;39.20;;;;;;5066390;28;20219;-79
2024/01/23 01:51:52;;;;;;;39.00;10.00;;;24.40;39.20;;;;;;5071386;28;20648;-79
2024/01/23 01:54:21;;;;;;;40.53;10.63;;;24.40;39.20;;;;;;5086896;28;20607;-80
2024/01/23 01:56:48;;;;;;;41.63;9.63;;;24.40;39.20;;;;;;5085479;28;20274;-79
2024/01/23 01:59:18;;;;;;;54.90;11.07;;;24.40;39.20;;;;;;5084547;28;20580;-81
2024/01/23 02:01:46;;;;;;;45.47;9.43;;;24.40;39.20;;;;;;5085637;28;21449;-79
2024/01/23 02:04:12;;;;;;;42.30;10.37;;;24.40;39.20;;;;;;5070723;28;20683;-79
2024/01/23 02:06:39;;;;;;;39.97;10.20;;;24.40;39.20;;;;;;5066932;28;20199;-79
2024/01/23 02:09:08;;;;;;;41.73;10.30;;;24.40;39.20;;;;;;5081622;28;20230;-79
2024/01/23 02:11:35;;;;;;;55.67;10.70;;;24.40;39.20;;;;;;5077452;28;20207;-79
2024/01/23 02:14:02;;;;;;;44.00;10.03;;;24.40;39.20;;;;;;5085301;28;20205;-79
2024/01/23 02:16:29;;;;;;;54.17;12.00;;;24.40;39.20;;;;;;5084475;28;20290;-80
2024/01/23 02:18:56;;;;;;;45.57;11.07;;;24.40;39.20;;;;;;5082202;28;20305;-79
2024/01/23 02:21:23;;;;;;;52.37;11.00;;;24.40;39.20;;;;;;5077477;28;20202;-78
2024/01/23 02:23:52;;;;;;;45.93;10.80;;;24.40;39.20;;;;;;5081286;28;20243;-79
2024/01/23 02:26:18;;;;;;;75.60;11.90;;;24.40;39.20;;;;;;5065852;28;20768;-79
2024/01/23 02:28:45;;;;;;;53.27;11.77;;;24.40;39.20;;;;;;5066902;28;20227;-80
2024/01/23 02:31:13;;;;;;;43.17;10.60;;;24.40;39.20;;;;;;5085263;28;20210;-79
2024/01/23 02:33:40;;;;;;;54.00;10.73;;;24.40;39.20;;;;;;5075420;28;20282;-79
2024/01/23 02:36:08;;;;;;;40.27;10.47;;;24.40;39.20;;;;;;5081854;28;20195;-80
2024/01/23 02:38:35;;;;;;;47.73;10.13;;;24.40;39.10;;;;;;5080513;28;20215;-79
2024/01/23 02:41:04;;;;;;;41.40;11.03;;;24.40;39.20;;;;;;5082765;28;20226;-78
2024/01/23 02:43:31;;;;;;;41.63;10.70;;;24.30;39.10;;;;;;5086099;28;20289;-79
2024/01/23 02:45:58;;;;;;;57.13;11.77;;;24.30;39.10;;;;;;5078693;28;20203;-79
2024/01/23 02:48:25;;;;;;;47.13;10.30;;;24.40;39.20;;;;;;5071919;28;20228;-79
2024/01/23 02:50:52;;;;;;;49.10;10.97;;;24.40;39.20;;;;;;5073869;28;20190;-79
2024/01/23 02:53:18;;;;;;;49.50;11.40;;;24.40;39.10;;;;;;5088766;28;20209;-77
2024/01/23 02:55:46;;;;;;;65.97;12.33;;;24.40;39.20;;;;;;5085644;28;20303;-79
2024/01/23 02:58:15;;;;;;;46.57;10.80;;;24.40;39.10;;;;;;5071361;28;20259;-78
2024/01/23 03:00:42;;;;;;;60.03;11.97;;;24.30;39.00;;;;;;5075138;28;20294;-79
2024/01/23 03:03:10;;;;;;;44.90;9.77;;;24.30;39.00;;;;;;5089036;28;20199;-79
2024/01/23 03:05:37;;;;;;;52.27;11.93;;;24.30;39.00;;;;;;5073280;28;20187;-79
2024/01/23 03:08:05;;;;;;;52.57;11.17;;;24.40;39.10;;;;;;5070385;28;20229;-78
2024/01/23 03:10:32;;;;;;;73.17;12.73;;;24.30;39.00;;;;;;5074816;28;20202;-79
2024/01/23 03:12:59;;;;;;;85.70;13.20;;;24.30;39.00;;;;;;5089608;28;20286;-79
2024/01/23 03:15:27;;;;;;;97.40;12.47;;;24.40;39.10;;;;;;5084193;28;20309;-78
2024/01/23 03:17:54;;;;;;;50.20;14.13;;;24.30;39.00;;;;;;5075905;28;20207;-78
2024/01/23 03:20:21;;;;;;;48.37;10.57;;;24.40;39.10;;;;;;5072741;28;20229;-80
2024/01/23 03:22:48;;;;;;;54.37;11.93;;;24.30;39.00;;;;;;5069312;28;20699;-78
2024/01/23 03:25:15;;;;;;;42.80;10.60;;;24.40;39.10;;;;;;5086226;28;20290;-78
2024/01/23 03:27:42;;;;;;;53.00;11.07;;;24.40;39.10;;;;;;5077971;28;21011;-79
2024/01/23 03:30:27;;;;;;;43.80;11.93;;;24.40;39.10;;;;;;5075987;28;20234;-78
2024/01/23 03:32:55;;;;;;;48.33;12.13;;;24.40;39.10;;;;;;5086867;28;20194;-79
2024/01/23 03:35:22;;;;;;;42.23;10.70;;;24.40;39.00;;;;;;5088776;28;20290;-80
2024/01/23 03:37:49;;;;;;;42.57;9.57;;;24.40;39.00;;;;;;5088014;28;20199;-80
2024/01/23 03:40:16;;;;;;;39.77;9.00;;;24.40;39.00;;;;;;5088772;28;20742;-80
2024/01/23 03:42:43;;;;;;;74.73;12.57;;;24.40;39.10;;;;;;5082326;28;20199;-80
2024/01/23 03:45:11;;;;;;;50.17;11.30;;;24.40;39.10;;;;;;5074386;28;20210;-79
2024/01/23 03:47:37;;;;;;;84.90;13.13;;;24.40;39.10;;;;;;5069463;28;20196;-79
2024/01/23 03:50:06;;;;;;;44.10;11.13;;;24.40;39.00;;;;;;5069321;28;20310;-79
2024/01/23 03:52:33;;;;;;;37.73;10.43;;;24.40;39.00;;;;;;5084226;28;20203;-79
2024/01/23 03:55:00;;;;;;;45.93;11.40;;;24.40;39.10;;;;;;5077454;28;20298;-79
2024/01/23 03:57:28;;;;;;;42.83;10.90;;;24.40;39.00;;;;;;5074115;28;20222;-79
2024/01/23 03:59:54;;;;;;;52.60;11.77;;;24.40;39.10;;;;;;5067926;28;20685;-80
2024/01/23 04:02:25;;;;;;;92.97;13.20;;;24.40;39.00;;;;;;5072844;28;20199;-78
2024/01/23 04:04:52;;;;;;;50.90;17.73;;;24.40;39.10;;;;;;5073095;28;20566;-78
2024/01/23 04:07:20;;;;;;;55.37;10.17;;;24.30;39.00;;;;;;5086397;28;20205;-79
2024/01/23 04:09:47;;;;;;;63.30;12.43;;;24.40;39.00;;;;;;5080343;28;20245;-79
2024/01/23 04:12:14;;;;;;;52.50;10.83;;;24.40;39.70;;;;;;5071223;28;20743;-79
2024/01/23 04:14:41;;;;;;;39.70;10.93;;;24.40;39.00;;;;;;5068645;28;20635;-79
2024/01/23 04:17:08;;;;;;;52.17;11.90;;;24.40;39.00;;;;;;5073390;28;20210;-80
2024/01/23 04:19:37;;;;;;;46.93;10.10;;;24.40;39.70;;;;;;5072577;28;20305;-77
2024/01/23 04:22:04;;;;;;;52.80;11.30;;;24.40;39.10;;;;;;5081135;28;20205;-78
2024/01/23 04:24:32;;;;;;;46.63;10.83;;;24.40;39.00;;;;;;5074705;28;20291;-78
2024/01/23 04:26:59;;;;;;;49.33;10.07;;;24.30;38.90;;;;;;5081399;28;20192;-79
2024/01/23 04:29:26;;;;;;;53.17;11.07;;;24.40;39.00;;;;;;5077080;28;20234;-79
2024/01/23 04:31:53;;;;;;;70.27;12.57;;;24.40;39.00;;;;;;5085735;28;20306;-79
2024/01/23 04:34:20;;;;;;;39.20;11.13;;;24.40;39.70;;;;;;5071365;28;20230;-78
2024/01/23 04:36:48;;;;;;;100.37;15.03;;;24.40;39.00;;;;;;5069467;28;20725;-78
2024/01/23 04:39:15;;;;;;;63.17;11.27;;;24.30;38.90;;;;;;5066682;28;20294;-78
2024/01/23 04:41:43;;;;;;;40.70;9.80;;;24.40;39.10;;;;;;5075539;28;20199;-78
2024/01/23 04:44:10;;;;;;;81.23;12.50;;;24.40;39.00;;;;;;5069221;28;20555;-78
2024/01/23 04:46:37;;;;;;;60.70;12.53;;;24.40;39.00;;;;;;5083509;28;20195;-77
2024/01/23 04:49:04;;;;;;;41.70;11.27;;;24.40;39.00;;;;;;5073087;28;20246;-77
2024/01/23 04:51:31;;;;;;;41.03;9.87;;;24.40;39.00;;;;;;5088645;28;20210;-78
2024/01/23 04:53:58;;;;;;;40.50;11.10;;;24.40;39.00;;;;;;5085915;28;20207;-77
2024/01/23 04:56:25;;;;;;;61.93;13.30;;;24.40;39.00;;;;;;5086100;28;20209;-78
2024/01/23 04:58:53;;;;;;;50.50;10.57;;;24.40;39.00;;;;;;5067127;28;20784;-78
2024/01/23 05:01:21;;;;;;;46.80;10.60;;;24.40;39.00;;;;;;5074225;28;20665;-77
2024/01/23 05:03:48;;;;;;;51.40;10.67;;;24.30;38.90;;;;;;5075694;28;20251;-78
2024/01/23 05:06:15;;;;;;;46.87;10.43;;;24.40;39.00;;;;;;5077832;28;20196;-79
2024/01/23 05:08:41;;;;;;;133.80;18.77;;;24.40;39.00;;;;;;5065953;28;20208;-77
2024/01/23 05:11:08;;;;;;;93.10;13.10;;;24.40;39.00;;;;;;5073807;28;20195;-79
2024/01/23 05:13:35;;;;;;;64.27;11.77;;;24.40;39.00;;;;;;5067105;28;20218;-78
2024/01/23 05:16:04;;;;;;;40.90;10.40;;;24.40;39.00;;;;;;5074977;28;20565;-77
2024/01/23 05:18:31;;;;;;;54.47;11.47;;;24.40;39.00;;;;;;5085120;28;20367;-77
2024/01/23 05:20:58;;;;;;;69.43;12.67;;;24.40;39.00;;;;;;5081857;28;20195;-77
2024/01/23 05:23:25;;;;;;;49.97;10.77;;;24.40;39.00;;;;;;5071763;28;20197;-77
2024/01/23 05:25:52;;;;;;;43.30;10.10;;;24.40;39.00;;;;;;5085459;28;20306;-77
2024/01/23 05:28:18;;;;;;;90.80;13.53;;;24.40;38.90;;;;;;5085951;28;20190;-77
2024/01/23 05:30:45;;;;;;;44.80;11.20;;;24.40;38.90;;;;;;5082408;28;20237;-77
2024/01/23 05:33:14;;;;;;;45.53;11.83;;;24.40;38.90;;;;;;5080829;28;20293;-77
2024/01/23 05:35:41;;;;;;;44.30;10.33;;;24.40;38.90;;;;;;5069436;28;20199;-79
2024/01/23 05:38:08;;;;;;;46.80;10.53;;;24.30;38.80;;;;;;5074136;28;20249;-79
2024/01/23 05:40:35;;;;;;;41.27;11.43;;;24.40;38.90;;;;;;5085258;28;20287;-78
2024/01/23 05:43:02;;;;;;;43.80;12.10;;;24.40;38.90;;;;;;5081250;28;20203;-79
2024/01/23 05:45:29;;;;;;;48.83;11.33;;;24.40;38.90;;;;;;5079053;28;20286;-79
2024/01/23 05:47:56;;;;;;;66.60;12.10;;;24.40;38.90;;;;;;5077111;28;20298;-79
2024/01/23 05:50:25;;;;;;;49.60;10.33;;;24.40;38.90;;;;;;5072988;28;20223;-79
2024/01/23 05:52:53;;;;;;;47.97;10.73;;;24.40;38.90;;;;;;5067224;28;20203;-79
2024/01/23 05:55:20;;;;;;;46.33;10.47;;;24.40;38.90;;;;;;5067071;28;20257;-79
2024/01/23 05:57:48;;;;;;;49.10;11.27;;;24.40;39.00;;;;;;5079723;28;20243;-79
2024/01/23 06:00:16;;;;;;;49.93;10.07;;;24.40;38.80;;;;;;5081870;28;20202;-78
2024/01/23 06:02:43;;;;;;;85.13;13.33;;;24.40;38.90;;;;;;5065865;28;20318;-78
2024/01/23 06:05:10;;;;;;;84.23;18.73;;;24.40;38.90;;;;;;5072935;28;20209;-77
2024/01/23 06:07:41;;;;;;;69.70;17.70;;;24.40;38.90;;;;;;5077047;28;20653;-80
2024/01/23 06:10:10;;;;;;;56.40;16.57;;;24.40;38.90;;;;;;5069133;28;20226;-83
2024/01/23 06:12:37;;;;;;;48.63;16.37;;;24.40;38.90;;;;;;5087253;28;20207;-79
2024/01/23 06:15:04;;;;;;;54.67;17.43;;;24.40;38.90;;;;;;5087076;28;20212;-79
2024/01/23 06:17:31;;;;;;;62.23;16.40;;;24.40;39.00;;;;;;5077706;28;20202;-70
2024/01/23 06:20:00;;;;;;;56.20;17.57;;;24.40;39.00;;;;;;5075859;28;20223;-79
2024/01/23 06:22:28;;;;;;;53.93;17.63;;;24.40;39.10;;;;;;5089767;28;20211;-77
2024/01/23 06:25:03;;;;;;;88.90;18.47;;;24.40;39.10;;;;;;5087992;28;20318;-77
2024/01/23 06:27:30;;;;;;;54.93;17.97;;;24.40;39.10;;;;;;5074162;28;20198;-74
2024/01/23 06:29:57;;;;;;;52.67;16.93;;;24.40;39.10;;;;;;5080096;28;20239;-75
2024/01/23 06:32:24;;;;;;;99.00;20.30;;;24.40;39.70;;;;;;5068820;28;20203;-77
2024/01/23 06:34:51;;;;;;;63.70;17.83;;;24.40;39.10;;;;;;5070674;28;20199;-78
2024/01/23 06:37:19;;;;;;;45.10;16.13;;;24.40;39.20;;;;;;5076464;28;20218;-73
2024/01/23 06:39:49;;;;;;;51.93;17.30;;;24.40;39.20;;;;;;5089156;28;20632;-79
2024/01/23 06:42:17;;;;;;;59.27;16.13;;;24.40;39.20;;;;;;5078749;28;20203;-74
2024/01/23 06:44:44;;;;;;;43.40;15.23;;;24.40;39.20;;;;;;5070659;28;20199;-81
2024/01/23 06:47:11;;;;;;;37.53;14.83;;;24.40;39.20;;;;;;5071234;28;20279;-81
2024/01/23 06:49:38;;;;;;;45.73;14.10;;;24.50;39.30;;;;;;5070536;28;20230;-79
2024/01/23 06:52:05;;;;;;;44.60;15.00;;;24.40;39.20;;;;;;5078751;28;20201;-77
2024/01/23 06:54:35;;;;;;;39.43;14.10;;;24.50;39.30;;;;;;5085765;28;20295;-79
2024/01/23 06:57:02;;;;;;;46.40;14.17;;;24.50;39.20;;;;;;5070588;28;20205;-80
2024/01/23 06:59:30;;;;;;;79.07;20.00;;;24.50;39.30;;;;;;5083565;28;20280;-80
2024/01/23 07:01:57;;;;;;;69.40;16.87;;;24.50;39.40;;;;;;5080543;28;20195;-84
2024/01/23 07:04:24;;;;;;;49.57;11.40;;;24.50;39.30;;;;;;5076759;28;20282;-75
2024/01/23 07:06:51;;;;;;;54.37;11.43;;;24.60;39.30;;;;;;5073648;28;20289;-74
2024/01/23 07:09:18;;;;;;;51.53;12.27;;;24.50;39.20;;;;;;5079535;28;20294;-83
2024/01/23 07:11:47;;;;;;;46.00;13.00;;;24.50;39.10;;;;;;5067467;28;20198;-74
2024/01/23 07:14:14;;;;;;;41.90;11.50;;;24.60;39.20;;;;;;5078530;28;20207;-74
2024/01/23 07:16:42;;;;;;;54.17;13.27;;;24.60;39.20;;;;;;5090164;28;20239;-74
2024/01/23 07:19:09;;;;;;;53.50;13.13;;;24.60;39.20;;;;;;5089252;28;20223;-74
2024/01/23 07:21:36;;;;;;;48.30;14.20;;;24.60;39.10;;;;;;5090048;28;20296;-74
2024/01/23 07:24:03;;;;;;;59.80;16.23;;;24.60;39.10;;;;;;5090349;28;20203;-75
2024/01/23 07:26:30;;;;;;;46.97;14.87;;;24.60;39.00;;;;;;5090289;28;20400;-74
2024/01/23 07:28:57;;;;;;;53.27;16.63;;;24.60;39.10;;;;;;5078320;28;20212;-74
2024/01/23 07:31:24;;;;;;;46.03;16.23;;;24.60;39.60;;;;;;5069197;28;20316;-74
2024/01/23 07:33:53;;;;;;;66.50;17.23;;;24.60;39.00;;;;;;5083903;28;20209;-74
2024/01/23 07:36:20;;;;;;;53.17;16.60;;;24.60;38.90;;;;;;5075284;28;20740;-74
2024/01/23 07:38:47;;;;;;;81.87;17.93;;;24.60;38.90;;;;;;5069777;28;20251;-74
2024/01/23 07:41:14;;;;;;;38.70;14.87;;;24.60;39.50;;;;;;5072307;28;20211;-74
2024/01/23 07:43:41;;;;;;;56.97;18.20;;;24.60;38.80;;;;;;5069263;28;20282;-74
2024/01/23 07:46:08;;;;;;;56.20;17.03;;;24.60;38.90;;;;;;5072583;28;20214;-74
2024/01/23 07:48:35;;;;;;;52.00;18.00;;;24.60;38.80;;;;;;5069636;28;20209;-74
2024/01/23 07:51:04;;;;;;;57.87;16.43;;;24.70;38.90;;;;;;5068928;28;20302;-75
2024/01/23 07:53:32;;;;;;;53.50;17.47;;;24.70;38.80;;;;;;5070411;28;20213;-74
2024/01/23 07:56:00;;;;;;;53.50;16.97;;;24.60;38.80;;;;;;5069391;28;20703;-74
2024/01/23 07:58:26;;;;;;;58.10;17.60;;;24.60;38.70;;;;;;5083126;28;20565;-80
2024/01/23 08:00:53;;;;;;;54.20;16.13;;;24.60;38.80;;;;;;5089335;28;20209;-77
2024/01/23 08:03:20;;;;;;;45.93;16.27;;;24.60;38.80;;;;;;5078247;28;20254;-77
2024/01/23 08:05:47;;;;;;;46.63;14.93;;;24.60;38.70;;;;;;5076383;28;20307;-74
2024/01/23 08:08:16;;;;;;;63.97;18.03;;;24.60;38.70;;;;;;5089218;28;20203;-74
2024/01/23 08:10:43;;;;;;;52.87;16.23;;;24.60;38.70;;;;;;5088541;28;20272;-74
2024/01/23 08:13:10;;;;;;;58.23;17.80;;;24.60;38.70;;;;;;5068288;28;20249;-74
2024/01/23 08:15:37;;;;;;;52.83;15.93;;;24.60;38.70;;;;;;5067377;28;20206;-77
2024/01/23 08:18:06;;;;;;;61.63;16.43;;;24.60;38.70;;;;;;5086470;28;20206;-76
2024/01/23 08:20:33;;;;;;;54.93;18.43;;;24.60;38.70;;;;;;5072193;28;20256;-73
2024/01/23 08:22:59;;;;;;;63.40;17.00;;;24.70;38.80;;;;;;5084608;28;20294;-74
2024/01/23 08:25:28;;;;;;;40.20;16.83;;;24.60;38.70;;;;;;5072746;28;20202;-74
2024/01/23 08:27:55;;;;;;;34.97;16.47;;;24.60;38.70;;;;;;5074069;28;20206;-74
2024/01/23 08:30:22;;;;;;;127.40;22.33;;;24.60;38.70;;;;;;5080388;28;20259;-74
2024/01/23 08:32:49;;;;;;;54.43;17.60;;;24.60;38.70;;;;;;5068374;28;20545;-74
2024/01/23 08:35:16;;;;;;;61.47;17.70;;;24.60;38.70;;;;;;5068830;28;20210;-74
2024/01/23 08:37:43;;;;;;;50.57;16.77;;;24.60;38.70;;;;;;5068030;28;20195;-75
2024/01/23 08:40:10;;;;;;;55.00;16.67;;;24.60;38.70;;;;;;5068576;28;20304;-74
2024/01/23 08:42:39;;;;;;;49.57;15.60;;;24.60;38.70;;;;;;5068255;28;20278;-74
2024/01/23 08:45:07;;;;;;;48.70;16.33;;;24.60;38.70;;;;;;5073021;28;20207;-74
2024/01/23 08:47:34;;;;;;;50.70;16.47;;;24.60;38.70;;;;;;5080138;28;20562;-73
2024/01/23 08:50:01;;;;;;;44.30;16.53;;;24.60;38.70;;;;;;5068388;28;20223;-74
2024/01/23 08:52:28;;;;;;;48.00;16.97;;;24.60;38.70;;;;;;5068401;28;20550;-75
2024/01/23 08:54:55;;;;;;;40.07;15.57;;;24.60;38.60;;;;;;5068194;28;20278;-74
2024/01/23 08:57:23;;;;;;;55.47;18.53;;;24.70;38.70;;;;;;5067953;28;20276;-75
2024/01/23 08:59:52;;;;;;;38.60;15.70;;;24.70;38.80;;;;;;5067747;28;20573;-74
2024/01/23 09:02:19;;;;;;;55.43;18.13;;;24.70;38.70;;;;;;5082730;28;20211;-75
2024/01/23 09:04:46;;;;;;;53.30;16.60;;;24.70;39.30;;;;;;5088318;28;20234;-74
2024/01/23 09:07:13;;;;;;;51.53;16.73;;;24.70;38.60;;;;;;5088373;28;20285;-81
2024/01/23 09:09:40;;;;;;;53.23;19.13;;;24.80;38.70;;;;;;5077869;28;20228;-80
2024/01/23 09:12:07;;;;;;;46.93;15.60;;;24.70;38.60;;;;;;5071034;28;20231;-80
2024/01/23 09:14:34;;;;;;;50.47;17.97;;;24.80;38.60;;;;;;5080632;28;20575;-83
2024/01/23 09:17:02;;;;;;;37.43;16.77;;;24.70;38.60;;;;;;5084695;28;20199;-82
2024/01/23 09:19:29;;;;;;;66.20;17.27;;;24.80;38.60;;;;;;5083834;28;20282;-83
2024/01/23 09:21:56;;;;;;;47.67;18.90;;;24.80;38.60;;;;;;5067850;28;20285;-82
2024/01/23 09:24:23;;;;;;;61.40;19.83;;;24.80;38.60;;;;;;5078727;28;20290;-78
2024/01/23 09:26:50;;;;;;;56.47;18.87;;;24.80;38.60;;;;;;5082554;28;20224;-81
2024/01/23 09:29:17;;;;;;;53.23;17.27;;;24.80;38.50;;;;;;5084790;28;20566;-79
2024/01/23 09:31:45;;;;;;;69.83;19.03;;;24.80;38.50;;;;;;5068138;28;20243;-81
2024/01/23 09:34:13;;;;;;;47.27;17.23;;;24.80;38.50;;;;;;5087951;28;20957;-80
2024/01/23 09:36:41;;;;;;;55.60;17.30;;;24.80;38.50;;;;;;5087378;28;20203;-80
2024/01/23 09:39:11;;;;;;;80.23;19.50;;;24.80;38.50;;;;;;5084363;28;20291;-82
2024/01/23 09:41:39;;;;;;;48.30;16.63;;;24.80;38.50;;;;;;5087169;28;20203;-81
2024/01/23 09:44:07;;;;;;;87.70;19.90;;;24.90;38.60;;;;;;5087220;28;20339;-83
2024/01/23 09:46:34;;;;;;;40.40;17.17;;;24.90;39.20;;;;;;5082084;28;20208;-83
2024/01/23 09:49:01;;;;;;;51.80;18.60;;;24.90;38.50;;;;;;5083518;28;20722;-82
2024/01/23 09:51:30;;;;;;;55.63;17.93;;;24.90;38.50;;;;;;5088228;28;20225;-83
2024/01/23 09:53:57;;;;;;;53.27;17.57;;;24.90;38.50;;;;;;5088052;28;20305;-83
2024/01/23 09:56:25;;;;;;;59.27;19.87;;;24.90;38.50;;;;;;5087238;28;20217;-74
2024/01/23 09:58:52;;;;;;;60.40;19.30;;;24.90;38.40;;;;;;5087801;28;20198;-74
2024/01/23 10:01:20;;;;;;;50.53;17.33;;;25.00;38.50;;;;;;5085296;28;20774;-74
2024/01/23 10:03:49;;;;;;;47.13;17.43;;;25.00;38.50;;;;;;5086776;28;20202;-74
2024/01/23 10:06:16;;;;;;;72.43;18.40;;;25.00;38.40;;;;;;5086249;28;20264;-75
2024/01/23 10:08:45;;;;;;;44.20;18.43;;;25.00;38.40;;;;;;5067425;28;20207;-74
2024/01/23 10:11:11;;;;;;;48.70;18.27;;;25.00;38.30;;;;;;5067328;28;20223;-74
2024/01/23 10:13:38;;;;;;;67.43;17.83;;;25.00;38.30;;;;;;5065785;28;20204;-73
2024/01/23 10:16:08;;;;;;;43.27;16.80;;;25.00;38.30;;;;;;5083194;28;20213;-74
2024/01/23 10:18:35;;;;;;;53.83;17.97;;;25.00;38.30;;;;;;5074736;28;20231;-74
2024/01/23 10:21:02;;;;;;;47.03;17.60;;;25.10;38.30;;;;;;5066489;28;20253;-75
2024/01/23 10:23:28;;;;;;;47.50;18.13;;;25.10;38.30;;;;;;5073763;28;20199;-74
2024/01/23 10:25:59;;;;;;;48.57;16.87;;;25.10;38.30;;;;;;5087313;28;20282;-74
2024/01/23 10:28:26;;;;;;;58.90;19.13;;;25.10;38.30;;;;;;5087345;28;20187;-74
2024/01/23 10:30:53;;;;;;;51.37;18.07;;;25.10;38.30;;;;;;5086643;28;20229;-73
2024/01/23 10:33:20;;;;;;;54.13;18.47;;;25.10;38.30;;;;;;5087449;28;20830;-74
2024/01/23 10:35:48;;;;;;;52.73;18.77;;;25.10;38.30;;;;;;5078784;28;20290;-74
2024/01/23 10:38:16;;;;;;;43.40;16.67;;;25.10;38.30;;;;;;5070214;28;20553;-75
2024/01/23 10:40:45;;;;;;;44.27;17.80;;;25.10;38.30;;;;;;5083230;28;20211;-74
2024/01/23 10:43:15;;;;;;;73.93;19.73;;;25.10;38.30;;;;;;5072905;28;20653;-74
2024/01/23 10:45:43;;;;;;;57.93;18.03;;;25.10;38.30;;;;;;5087185;28;20813;-74
2024/01/23 10:48:10;;;;;;;76.57;18.93;;;25.10;38.30;;;;;;5084069;28;20711;-74
2024/01/23 10:50:38;;;;;;;76.13;16.77;;;25.20;38.40;;;;;;5068538;28;20720;-74
2024/01/23 10:53:07;;;;;;;56.90;17.23;;;25.20;38.30;;;;;;5087146;28;20276;-74
2024/01/23 10:55:38;;;;;;;49.20;16.70;;;25.10;38.30;;;;;;5066938;28;20199;-74
2024/01/23 10:58:19;;;;;;;44.03;17.73;;;25.20;38.40;;;;;;5067088;28;20231;-74
2024/01/23 11:00:47;;;;;;;52.73;17.07;;;25.20;38.40;;;;;;5083223;28;20210;-74
2024/01/23 11:03:15;;;;;;;95.60;20.43;;;25.20;38.40;;;;;;5067259;28;20207;-74
2024/01/23 11:05:47;;;;;;;44.97;17.10;;;25.20;38.30;;;;;;5078653;28;20195;-75
2024/01/23 11:08:20;;;;;;;64.83;18.90;;;25.20;38.30;;;;;;5070229;28;20232;-74
2024/01/23 11:10:51;;;;;;;77.07;20.43;;;25.20;38.30;;;;;;5086362;28;20308;-73
2024/01/23 11:13:27;;;;;;;56.77;18.23;;;25.20;38.30;;;;;;5071697;28;20218;-75
2024/01/23 11:15:53;;;;;;;66.30;17.97;;;25.20;38.30;;;;;;5071370;28;20721;-74
2024/01/23 11:18:28;;;;;;;98.77;21.07;;;25.20;38.30;;;;;;5087645;28;20309;-74
2024/01/23 11:21:17;;;;;;;54.73;16.97;;;25.30;38.30;;;;;;5084855;28;20209;-74
2024/01/23 11:23:45;;;;;;;43.70;17.10;;;25.30;38.20;;;;;;5085063;28;20211;-74
2024/01/23 11:26:19;;;;;;;52.80;18.63;;;25.30;38.30;;;;;;5090270;28;20218;-75
2024/01/23 11:28:52;;;;;;;64.53;20.40;;;25.30;38.20;;;;;;5070393;28;20690;-74
2024/01/23 11:31:20;;;;;;;51.83;18.07;;;25.30;38.20;;;;;;5082034;28;20239;-74
2024/01/23 11:33:47;;;;;;;71.80;19.00;;;25.30;38.30;;;;;;5089594;28;20618;-75
2024/01/23 11:36:15;;;;;;;46.83;17.13;;;25.30;38.20;;;;;;5073286;28;20199;-75
2024/01/23 11:38:43;;;;;;;53.13;17.10;;;25.30;38.20;;;;;;5078495;28;20278;-75
2024/01/23 11:41:22;;;;;;;87.10;20.97;;;25.30;38.20;;;;;;5089994;28;20676;-73
2024/01/23 11:43:53;;;;;;;62.53;17.67;;;25.30;38.20;;;;;;5078560;28;20210;-79
2024/01/23 11:46:21;;;;;;;46.33;17.87;;;25.30;38.20;;;;;;5090040;28;20202;-75
2024/01/23 11:48:49;;;;;;;81.47;19.80;;;25.30;38.20;;;;;;5089565;28;20233;-77
2024/01/23 11:51:17;;;;;;;46.30;17.03;;;25.20;38.80;;;;;;5085892;28;20949;-75
2024/01/23 11:53:45;;;;;;;52.43;16.80;;;25.30;38.20;;;;;;5081109;28;20203;-79
2024/01/23 11:56:14;;;;;;;48.17;16.90;;;25.30;38.20;;;;;;5080705;28;20315;-74
2024/01/23 11:58:42;;;;;;;107.63;20.23;;;25.30;38.20;;;;;;5068201;28;20249;-77
2024/01/23 12:01:13;;;;;;;50.60;17.13;;;25.30;38.30;;;;;;5089322;28;20207;-76
2024/01/23 12:03:46;;;;;;;64.73;19.97;;;25.30;38.20;;;;;;5077553;28;20639;-77
2024/01/23 12:06:14;;;;;;;56.20;18.33;;;25.30;38.20;;;;;;5070564;28;20199;-78
2024/01/23 12:08:41;;;;;;;59.70;19.10;;;25.30;38.20;;;;;;5087905;28;20199;-81
2024/01/23 12:11:09;;;;;;;56.73;20.93;;;25.30;38.20;;;;;;5088727;28;20231;-80
2024/01/23 12:13:37;;;;;;;131.60;26.07;;;25.30;38.30;;;;;;5069506;28;20199;-87
2024/01/23 12:16:06;;;;;;;52.07;20.60;;;25.30;38.30;;;;;;5073916;28;20630;-83
2024/01/23 12:18:35;;;;;;;54.80;20.07;;;25.20;38.30;;;;;;5083027;28;20255;-74
2024/01/23 12:21:04;;;;;;;45.83;19.10;;;25.20;38.30;;;;;;5085842;28;20230;-83
2024/01/23 12:23:31;;;;;;;60.30;18.40;;;25.20;38.30;;;;;;5086060;28;20191;-81
2024/01/23 12:25:59;;;;;;;49.20;20.33;;;25.20;38.30;;;;;;5074783;28;20731;-82
2024/01/23 12:28:27;;;;;;;56.53;21.83;;;25.30;38.40;;;;;;5073355;28;20199;-82
2024/01/23 12:30:54;;;;;;;40.87;19.17;;;25.20;38.40;;;;;;5088903;28;20203;-77